Time;durP1;ratioP1;P1;durP2;ratioP2;P2;SDS_P1;SDS_P2;PMS_P1;PMS_P2;Temp;Humidity;BMP_temperature;BMP_pressure;BME280_temperature;BME280_humidity;BME280_pressure;Samples;Min_cycle;Max_cycle;Signal;HPM_P1;HPM_P2
2023/05/14 00:01:51;;;;;;;342.93;24.43;;;;;;;;;;4978320;28;20266;-55
2023/05/14 00:04:18;;;;;;;360.90;26.02;;;;;;;;;;4978622;28;20368;-56
2023/05/14 00:06:43;;;;;;;377.27;26.45;;;;;;;;;;4978823;28;20053;-54
2023/05/14 00:09:09;;;;;;;317.95;25.45;;;;;;;;;;4979621;28;20411;-55
2023/05/14 00:11:34;;;;;;;312.55;23.92;;;;;;;;;;4978270;28;20045;-54
2023/05/14 00:13:59;;;;;;;278.73;22.60;;;;;;;;;;4977613;28;20443;-53
2023/05/14 00:16:25;;;;;;;262.17;20.75;;;;;;;;;;4981152;28;20034;-53
2023/05/14 00:18:50;;;;;;;248.07;22.63;;;;;;;;;;4961791;28;20023;-57
2023/05/14 00:21:16;;;;;;;265.10;22.07;;;;;;;;;;4981784;28;20026;-57
2023/05/14 00:23:41;;;;;;;353.88;24.73;;;;;;;;;;4979208;28;20265;-54
2023/05/14 00:26:06;;;;;;;419.83;26.25;;;;;;;;;;4975715;28;20717;-55
2023/05/14 00:28:31;;;;;;;269.35;20.90;;;;;;;;;;4976698;28;20756;-57
2023/05/14 00:30:57;;;;;;;246.50;21.13;;;;;;;;;;4979065;28;20102;-57
2023/05/14 00:33:22;;;;;;;378.02;24.60;;;;;;;;;;4980161;28;20265;-56
2023/05/14 00:35:47;;;;;;;313.83;23.43;;;;;;;;;;4979744;28;20042;-57
2023/05/14 00:38:15;;;;;;;338.20;24.85;;;;;;;;;;4981127;28;20269;-60
2023/05/14 00:40:44;;;;;;;378.65;25.08;;;;;;;;;;4980132;28;20030;-56
2023/05/14 00:43:09;;;;;;;395.05;27.05;;;;;;;;;;4977516;28;20033;-57
2023/05/14 00:45:35;;;;;;;369.52;25.40;;;;;;;;;;4979514;28;20042;-56
2023/05/14 00:48:00;;;;;;;289.58;24.00;;;;;;;;;;4980338;28;20026;-54
2023/05/14 00:50:25;;;;;;;267.92;25.52;;;;;;;;;;4979323;28;20854;-56
2023/05/14 00:52:51;;;;;;;351.52;25.55;;;;;;;;;;4980583;28;20527;-57
2023/05/14 00:55:16;;;;;;;451.73;30.33;;;;;;;;;;4980088;28;20408;-54
2023/05/14 00:57:41;;;;;;;337.58;25.73;;;;;;;;;;4979818;28;20076;-57
2023/05/14 01:00:07;;;;;;;323.95;26.95;;;;;;;;;;4982082;28;20511;-58
2023/05/14 01:02:32;;;;;;;269.73;23.80;;;;;;;;;;4984643;28;20035;-58
2023/05/14 01:04:58;;;;;;;261.30;23.87;;;;;;;;;;4983189;28;20033;-56
2023/05/14 01:07:29;;;;;;;387.07;89.77;;;;;;;;;;4981256;28;20273;-56
2023/05/14 01:10:00;;;;;;;54.90;9.18;;;;;;;;;;4982451;28;20281;-55
2023/05/14 01:12:35;;;;;;;53.67;9.38;;;;;;;;;;4982079;28;20037;-57
2023/05/14 01:15:10;;;;;;;59.67;10.20;;;;;;;;;;4984726;28;20052;-56
2023/05/14 01:17:38;;;;;;;71.50;11.30;;;;;;;;;;4979749;28;20038;-56
2023/05/14 01:20:03;;;;;;;51.50;9.55;;;;;;;;;;4983056;28;20052;-57
2023/05/14 01:22:28;;;;;;;53.90;10.20;;;;;;;;;;4981188;28;20715;-57
2023/05/14 01:24:53;;;;;;;63.10;10.75;;;;;;;;;;4979990;28;20439;-56
2023/05/14 01:27:22;;;;;;;66.50;10.30;;;;;;;;;;4962275;28;20186;-55
2023/05/14 01:30:01;;;;;;;74.25;11.02;;;;;;;;;;4979876;28;20289;-56
2023/05/14 01:32:29;;;;;;;66.95;9.73;;;;;;;;;;4981713;28;20152;-57
2023/05/14 01:34:55;;;;;;;66.68;10.38;;;;;;;;;;4980252;28;20137;-55
2023/05/14 01:37:21;;;;;;;68.72;9.65;;;;;;;;;;4982140;28;20140;-56
2023/05/14 01:39:47;;;;;;;74.60;9.95;;;;;;;;;;4981903;28;20145;-55
2023/05/14 01:42:12;;;;;;;63.83;9.57;;;;;;;;;;4984348;28;20457;-55
2023/05/14 01:44:38;;;;;;;66.07;9.77;;;;;;;;;;4985380;28;20030;-55
2023/05/14 01:47:03;;;;;;;60.45;9.63;;;;;;;;;;4985472;28;20042;-54
2023/05/14 01:49:28;;;;;;;68.15;9.15;;;;;;;;;;4986770;28;20124;-57
2023/05/14 01:51:53;;;;;;;81.33;10.50;;;;;;;;;;4984699;28;20038;-56
2023/05/14 01:54:19;;;;;;;115.40;12.33;;;;;;;;;;4985513;28;20265;-55
2023/05/14 01:56:44;;;;;;;85.22;9.57;;;;;;;;;;4983991;28;20284;-54
2023/05/14 01:59:09;;;;;;;105.43;11.30;;;;;;;;;;4983373;28;20021;-56
2023/05/14 02:01:34;;;;;;;72.50;10.57;;;;;;;;;;4985679;28;20098;-55
2023/05/14 02:04:00;;;;;;;82.82;10.05;;;;;;;;;;4984903;28;20269;-58
2023/05/14 02:06:25;;;;;;;90.75;10.18;;;;;;;;;;4985856;28;20498;-54
2023/05/14 02:08:50;;;;;;;85.03;9.85;;;;;;;;;;4986810;28;20874;-54
2023/05/14 02:11:16;;;;;;;108.20;9.00;;;;;;;;;;4985244;28;20034;-56
2023/05/14 02:13:41;;;;;;;142.83;10.97;;;;;;;;;;4986854;28;20265;-57
2023/05/14 02:16:06;;;;;;;88.33;9.53;;;;;;;;;;4984125;28;20368;-54
2023/05/14 02:18:31;;;;;;;119.35;10.27;;;;;;;;;;4985771;28;20783;-56
2023/05/14 02:20:57;;;;;;;97.22;9.85;;;;;;;;;;4985404;28;20492;-58
2023/05/14 02:23:22;;;;;;;89.60;9.75;;;;;;;;;;4986008;28;20030;-57
2023/05/14 02:25:47;;;;;;;104.65;9.40;;;;;;;;;;4980345;28;20038;-57
2023/05/14 02:28:12;;;;;;;139.13;11.67;;;;;;;;;;4984005;28;20022;-54
2023/05/14 02:30:38;;;;;;;110.83;10.27;;;;;;;;;;4985281;28;20679;-56
2023/05/14 02:33:03;;;;;;;91.03;8.52;;;;;;;;;;4986171;28;21024;-57
2023/05/14 02:35:28;;;;;;;98.03;9.98;;;;;;;;;;4983895;28;20876;-56
2023/05/14 02:37:53;;;;;;;90.00;9.60;;;;;;;;;;4983173;28;20113;-57
2023/05/14 02:40:19;;;;;;;110.47;10.67;;;;;;;;;;4985243;28;20336;-56
2023/05/14 02:42:44;;;;;;;109.43;10.02;;;;;;;;;;4987472;28;20252;-53
2023/05/14 02:45:09;;;;;;;130.80;11.05;;;;;;;;;;4982336;28;20079;-56
2023/05/14 02:47:35;;;;;;;132.07;11.52;;;;;;;;;;4986177;28;20129;-56
2023/05/14 02:50:00;;;;;;;80.85;8.32;;;;;;;;;;4984938;28;20042;-56
2023/05/14 02:52:25;;;;;;;104.63;9.98;;;;;;;;;;4984123;28;20110;-54
2023/05/14 02:54:50;;;;;;;113.80;10.00;;;;;;;;;;4984569;28;20022;-57
2023/05/14 02:57:16;;;;;;;133.87;11.00;;;;;;;;;;4981200;28;20282;-56
2023/05/14 02:59:41;;;;;;;105.00;10.23;;;;;;;;;;4982550;28;20272;-57
2023/05/14 03:02:06;;;;;;;123.13;11.30;;;;;;;;;;4984106;28;20281;-56
2023/05/14 03:04:31;;;;;;;124.17;10.50;;;;;;;;;;4983861;28;20431;-58
2023/05/14 03:06:56;;;;;;;109.80;9.90;;;;;;;;;;4985157;28;20929;-58
2023/05/14 03:09:22;;;;;;;134.75;10.95;;;;;;;;;;4985731;28;20907;-56
2023/05/14 03:11:47;;;;;;;121.05;10.57;;;;;;;;;;4985033;28;20124;-57
2023/05/14 03:14:12;;;;;;;159.73;11.70;;;;;;;;;;4982742;28;20031;-53
2023/05/14 03:16:38;;;;;;;136.63;10.68;;;;;;;;;;4985171;28;20264;-56
2023/05/14 03:19:04;;;;;;;98.95;9.45;;;;;;;;;;4985226;28;20010;-54
2023/05/14 03:21:30;;;;;;;93.13;9.23;;;;;;;;;;4983265;28;20665;-55
2023/05/14 03:23:55;;;;;;;167.90;11.75;;;;;;;;;;4983490;28;20060;-56
2023/05/14 03:26:20;;;;;;;116.85;10.10;;;;;;;;;;4982124;28;20034;-54
2023/05/14 03:28:46;;;;;;;109.97;9.98;;;;;;;;;;4981625;28;20033;-58
2023/05/14 03:31:11;;;;;;;140.47;11.20;;;;;;;;;;4982348;28;20042;-58
2023/05/14 03:33:36;;;;;;;129.13;10.38;;;;;;;;;;4983037;28;21094;-56
2023/05/14 03:36:01;;;;;;;104.07;9.53;;;;;;;;;;4982591;28;20042;-55
2023/05/14 03:38:27;;;;;;;123.22;10.05;;;;;;;;;;4984463;28;20319;-54
2023/05/14 03:40:52;;;;;;;123.93;9.77;;;;;;;;;;4984298;28;20481;-57
2023/05/14 03:43:17;;;;;;;149.73;11.13;;;;;;;;;;4985666;28;20301;-54
2023/05/14 03:45:42;;;;;;;140.95;10.73;;;;;;;;;;4982920;28;20034;-54
2023/05/14 03:48:08;;;;;;;119.10;9.90;;;;;;;;;;4984011;28;20038;-54
2023/05/14 03:50:33;;;;;;;110.57;9.77;;;;;;;;;;4984580;28;20052;-55
2023/05/14 03:52:58;;;;;;;106.93;9.83;;;;;;;;;;4983552;28;20102;-55
2023/05/14 03:55:23;;;;;;;127.20;10.60;;;;;;;;;;4981489;28;20377;-57
2023/05/14 03:57:49;;;;;;;118.33;9.27;;;;;;;;;;4982389;28;21171;-57
2023/05/14 04:00:14;;;;;;;113.25;9.77;;;;;;;;;;4984155;28;21147;-57
2023/05/14 04:02:39;;;;;;;124.65;10.10;;;;;;;;;;4983689;28;20018;-57
2023/05/14 04:05:05;;;;;;;118.32;9.93;;;;;;;;;;4982793;28;20033;-54
2023/05/14 04:07:30;;;;;;;165.15;11.50;;;;;;;;;;4980231;28;20035;-53
2023/05/14 04:09:55;;;;;;;132.35;10.70;;;;;;;;;;4984803;28;20055;-55
2023/05/14 04:12:20;;;;;;;124.28;10.13;;;;;;;;;;4982400;28;20061;-54
2023/05/14 04:14:46;;;;;;;126.72;9.93;;;;;;;;;;4984538;28;20022;-53
2023/05/14 04:17:11;;;;;;;123.07;10.63;;;;;;;;;;4982773;28;20186;-54
2023/05/14 04:19:36;;;;;;;146.53;9.73;;;;;;;;;;4984569;28;20253;-54
2023/05/14 04:22:01;;;;;;;125.78;10.73;;;;;;;;;;4983669;28;20269;-55
2023/05/14 04:24:26;;;;;;;153.35;10.93;;;;;;;;;;4981916;28;20047;-54
2023/05/14 04:26:52;;;;;;;126.47;10.33;;;;;;;;;;4981768;28;20078;-55
2023/05/14 04:29:17;;;;;;;135.43;10.70;;;;;;;;;;4980362;28;20296;-54
2023/05/14 04:31:43;;;;;;;133.40;10.10;;;;;;;;;;4981825;28;20280;-56
2023/05/14 04:34:08;;;;;;;138.38;8.52;;;;;;;;;;4982291;28;20035;-54
2023/05/14 04:36:33;;;;;;;156.27;10.77;;;;;;;;;;4982443;28;20034;-57
2023/05/14 04:38:58;;;;;;;125.40;10.00;;;;;;;;;;4983361;28;20024;-54
2023/05/14 04:41:24;;;;;;;129.32;10.10;;;;;;;;;;4982622;28;20276;-56
2023/05/14 04:43:49;;;;;;;202.02;12.45;;;;;;;;;;4982971;28;20017;-56
2023/05/14 04:46:14;;;;;;;146.60;10.05;;;;;;;;;;4980574;28;20041;-54
2023/05/14 04:48:40;;;;;;;169.02;11.13;;;;;;;;;;4983001;28;20609;-56
2023/05/14 04:51:06;;;;;;;171.85;11.40;;;;;;;;;;4982791;28;20615;-54
2023/05/14 04:53:31;;;;;;;138.07;10.07;;;;;;;;;;4983426;28;20053;-54
2023/05/14 04:55:56;;;;;;;174.30;10.53;;;;;;;;;;4979115;28;20436;-55
2023/05/14 04:58:22;;;;;;;131.70;10.00;;;;;;;;;;4979808;28;20620;-54
2023/05/14 05:00:48;;;;;;;164.25;10.05;;;;;;;;;;4981373;28;21026;-56
2023/05/14 05:03:13;;;;;;;134.57;9.90;;;;;;;;;;4984749;28;20030;-55
2023/05/14 05:05:38;;;;;;;154.60;10.33;;;;;;;;;;4981376;28;20034;-54
2023/05/14 05:08:03;;;;;;;123.67;9.80;;;;;;;;;;4982532;28;20261;-54
2023/05/14 05:10:29;;;;;;;132.13;10.47;;;;;;;;;;4982898;28;20270;-55
2023/05/14 05:12:54;;;;;;;122.03;9.10;;;;;;;;;;4982035;28;20262;-55
2023/05/14 05:15:19;;;;;;;167.15;10.73;;;;;;;;;;4980817;28;20270;-54
2023/05/14 05:17:44;;;;;;;166.23;11.35;;;;;;;;;;4980012;28;20036;-54
2023/05/14 05:20:10;;;;;;;147.80;10.40;;;;;;;;;;4982090;28;20030;-61
2023/05/14 05:22:35;;;;;;;139.52;9.43;;;;;;;;;;4983632;28;20324;-56
2023/05/14 05:25:04;;;;;;;320.33;16.90;;;;;;;;;;4977929;28;20022;-56
2023/05/14 05:27:29;;;;;;;173.77;10.88;;;;;;;;;;4979182;28;20437;-55
2023/05/14 05:29:54;;;;;;;148.63;8.82;;;;;;;;;;4981701;28;20026;-55
2023/05/14 05:32:20;;;;;;;156.37;9.80;;;;;;;;;;4981892;28;20031;-54
2023/05/14 05:34:45;;;;;;;156.48;9.20;;;;;;;;;;4981420;28;20262;-55
2023/05/14 05:37:12;;;;;;;121.80;7.50;;;;;;;;;;4983603;28;20084;-57
2023/05/14 05:39:38;;;;;;;131.73;8.75;;;;;;;;;;4980156;28;20262;-54
2023/05/14 05:42:04;;;;;;;134.02;9.02;;;;;;;;;;4981659;28;20627;-55
2023/05/14 05:44:29;;;;;;;126.97;9.07;;;;;;;;;;4979956;28;20034;-57
2023/05/14 05:46:57;;;;;;;132.95;8.75;;;;;;;;;;4978865;28;20035;-54
2023/05/14 05:49:22;;;;;;;142.02;9.13;;;;;;;;;;4981317;28;20587;-53
2023/05/14 05:51:48;;;;;;;113.43;7.80;;;;;;;;;;4982470;28;20692;-56
2023/05/14 05:54:13;;;;;;;138.57;9.50;;;;;;;;;;4982277;28;20839;-55
2023/05/14 05:56:38;;;;;;;131.10;8.82;;;;;;;;;;4967986;28;20387;-55
2023/05/14 05:59:04;;;;;;;163.80;9.87;;;;;;;;;;4977673;28;20026;-56
2023/05/14 06:01:29;;;;;;;125.33;8.57;;;;;;;;;;4980405;28;20033;-57
2023/05/14 06:03:54;;;;;;;171.48;10.30;;;;;;;;;;4982213;28;20020;-56
2023/05/14 06:06:20;;;;;;;166.88;10.05;;;;;;;;;;4980794;28;20102;-54
2023/05/14 06:08:45;;;;;;;128.25;7.97;;;;;;;;;;4980803;28;20109;-56
2023/05/14 06:11:11;;;;;;;144.50;9.37;;;;;;;;;;4981111;28;20042;-54
2023/05/14 06:13:36;;;;;;;151.23;9.00;;;;;;;;;;4982963;28;20514;-54
2023/05/14 06:16:01;;;;;;;159.07;9.83;;;;;;;;;;4978849;28;20095;-53
2023/05/14 06:18:26;;;;;;;139.73;9.40;;;;;;;;;;4981868;28;20273;-56
2023/05/14 06:20:51;;;;;;;159.97;9.50;;;;;;;;;;4982260;28;20046;-56
2023/05/14 06:23:17;;;;;;;147.93;9.20;;;;;;;;;;4982594;28;20038;-54
2023/05/14 06:25:42;;;;;;;163.67;9.87;;;;;;;;;;4978951;28;20062;-57
2023/05/14 06:28:07;;;;;;;186.50;11.27;;;;;;;;;;4978632;28;20308;-55
2023/05/14 06:30:32;;;;;;;162.57;9.90;;;;;;;;;;4983814;28;20799;-58
2023/05/14 06:32:58;;;;;;;187.27;10.17;;;;;;;;;;4986323;28;20302;-55
2023/05/14 06:35:23;;;;;;;173.93;9.83;;;;;;;;;;4983415;28;20301;-56
2023/05/14 06:37:48;;;;;;;139.40;8.50;;;;;;;;;;4985056;28;20337;-58
2023/05/14 06:40:16;;;;;;;173.30;9.18;;;;;;;;;;4985360;28;20038;-57
2023/05/14 06:42:42;;;;;;;146.68;9.07;;;;;;;;;;4986629;28;20029;-54
2023/05/14 06:45:07;;;;;;;120.10;8.13;;;;;;;;;;4982542;28;20105;-56
2023/05/14 06:47:32;;;;;;;148.57;8.73;;;;;;;;;;4984457;28;20265;-57
2023/05/14 06:49:58;;;;;;;137.20;8.27;;;;;;;;;;4983947;28;20027;-57
2023/05/14 06:52:24;;;;;;;174.20;9.95;;;;;;;;;;4984189;28;20297;-58
2023/05/14 06:54:49;;;;;;;179.73;10.23;;;;;;;;;;4984853;28;20141;-59
2023/05/14 06:57:15;;;;;;;163.07;9.87;;;;;;;;;;4982852;28;20120;-57
2023/05/14 06:59:40;;;;;;;168.82;9.65;;;;;;;;;;4982714;28;20268;-58
2023/05/14 07:02:05;;;;;;;543.03;25.97;;;;;;;;;;4973957;28;20041;-56
2023/05/14 07:04:31;;;;;;;112.53;7.68;;;;;;;;;;4986592;28;20413;-56
2023/05/14 07:06:56;;;;;;;103.37;7.17;;;;;;;;;;4986359;28;20035;-56
2023/05/14 07:09:21;;;;;;;123.57;8.00;;;;;;;;;;4986486;28;20264;-57
2023/05/14 07:11:46;;;;;;;135.23;8.97;;;;;;;;;;4984603;28;20073;-54
2023/05/14 07:14:12;;;;;;;125.90;8.53;;;;;;;;;;4986410;28;20586;-58
2023/05/14 07:16:37;;;;;;;131.50;8.97;;;;;;;;;;4981219;28;20663;-60
2023/05/14 07:19:02;;;;;;;158.57;9.50;;;;;;;;;;4983830;28;20260;-59
2023/05/14 07:21:27;;;;;;;159.33;9.30;;;;;;;;;;4982850;28;20037;-57
2023/05/14 07:23:53;;;;;;;226.95;11.93;;;;;;;;;;4985207;28;20554;-59
2023/05/14 07:26:18;;;;;;;197.05;10.23;;;;;;;;;;4982157;28;20997;-57
2023/05/14 07:28:43;;;;;;;187.25;10.57;;;;;;;;;;4981981;28;20029;-57
2023/05/14 07:31:08;;;;;;;167.00;9.77;;;;;;;;;;4981771;28;20439;-57
2023/05/14 07:33:35;;;;;;;189.23;10.60;;;;;;;;;;4981168;28;20404;-55
2023/05/14 07:36:00;;;;;;;191.10;10.70;;;;;;;;;;4983867;28;20571;-58
2023/05/14 07:38:26;;;;;;;214.35;11.40;;;;;;;;;;4983902;28;20056;-57
2023/05/14 07:40:51;;;;;;;186.48;10.30;;;;;;;;;;4983907;28;20045;-56
2023/05/14 07:43:16;;;;;;;191.73;9.97;;;;;;;;;;4984474;28;20026;-58
2023/05/14 07:45:41;;;;;;;257.38;12.57;;;;;;;;;;4981902;28;20301;-58
2023/05/14 07:48:07;;;;;;;188.65;10.77;;;;;;;;;;4981407;28;20535;-59
2023/05/14 07:50:32;;;;;;;177.13;10.10;;;;;;;;;;4984177;28;20042;-57
2023/05/14 07:52:57;;;;;;;202.23;11.17;;;;;;;;;;4984209;28;20164;-57
2023/05/14 07:55:23;;;;;;;229.20;11.70;;;;;;;;;;4981904;28;20280;-57
2023/05/14 07:57:48;;;;;;;229.20;11.27;;;;;;;;;;4979413;28;20714;-58
2023/05/14 08:00:13;;;;;;;211.73;11.13;;;;;;;;;;4983245;28;20166;-57
2023/05/14 08:02:39;;;;;;;186.40;10.63;;;;;;;;;;4983756;28;20102;-56
2023/05/14 08:05:04;;;;;;;266.38;13.25;;;;;;;;;;4978208;28;20112;-57
2023/05/14 08:07:29;;;;;;;196.20;10.65;;;;;;;;;;4978007;28;20034;-54
2023/05/14 08:09:55;;;;;;;215.80;11.15;;;;;;;;;;4981375;28;20029;-57
2023/05/14 08:12:20;;;;;;;220.10;11.20;;;;;;;;;;4982228;28;20030;-58
2023/05/14 08:14:46;;;;;;;196.25;10.52;;;;;;;;;;4981823;28;20030;-57
2023/05/14 08:17:11;;;;;;;246.93;11.83;;;;;;;;;;4980912;28;20058;-58
2023/05/14 08:19:36;;;;;;;190.00;10.07;;;;;;;;;;4981509;28;20285;-56
2023/05/14 08:22:02;;;;;;;189.95;10.23;;;;;;;;;;4983342;28;20031;-59
2023/05/14 08:24:27;;;;;;;205.15;10.82;;;;;;;;;;4982525;28;20388;-56
2023/05/14 08:26:53;;;;;;;210.48;10.57;;;;;;;;;;4980222;28;20041;-56
2023/05/14 08:29:18;;;;;;;227.23;11.03;;;;;;;;;;4981998;28;20014;-57
2023/05/14 08:31:43;;;;;;;215.80;10.93;;;;;;;;;;4981389;28;20168;-57
2023/05/14 08:34:09;;;;;;;201.07;10.40;;;;;;;;;;4982680;28;20278;-54
2023/05/14 08:36:34;;;;;;;189.68;9.60;;;;;;;;;;4981943;28;20046;-57
2023/05/14 08:38:59;;;;;;;160.55;9.10;;;;;;;;;;4983002;28;20499;-55
2023/05/14 08:41:24;;;;;;;161.17;9.03;;;;;;;;;;4981441;28;20280;-54
2023/05/14 08:43:55;;;;;;;145.37;8.67;;;;;;;;;;4974237;28;20414;-54
2023/05/14 08:46:22;;;;;;;239.33;11.43;;;;;;;;;;4980348;28;20040;-56
2023/05/14 08:48:50;;;;;;;202.27;10.52;;;;;;;;;;4981144;28;20022;-56
2023/05/14 08:51:15;;;;;;;193.02;10.00;;;;;;;;;;4981215;28;20574;-56
2023/05/14 08:53:40;;;;;;;249.97;12.27;;;;;;;;;;4981487;28;20126;-57
2023/05/14 08:56:06;;;;;;;195.63;10.43;;;;;;;;;;4982725;28;21231;-55
2023/05/14 08:58:32;;;;;;;225.27;11.38;;;;;;;;;;4982539;28;20026;-56
2023/05/14 09:00:57;;;;;;;193.68;10.07;;;;;;;;;;4981796;28;20041;-58
2023/05/14 09:03:22;;;;;;;224.80;11.45;;;;;;;;;;4979107;28;20053;-59
2023/05/14 09:05:50;;;;;;;144.25;8.68;;;;;;;;;;4981093;28;20050;-57
2023/05/14 09:08:15;;;;;;;140.20;8.35;;;;;;;;;;4982070;28;20026;-58
2023/05/14 09:10:41;;;;;;;161.25;8.93;;;;;;;;;;4980384;28;20091;-60
2023/05/14 09:13:08;;;;;;;150.25;8.82;;;;;;;;;;4981515;28;20033;-59
2023/05/14 09:15:35;;;;;;;182.70;9.93;;;;;;;;;;4981889;28;20591;-59
2023/05/14 09:18:03;;;;;;;176.45;9.85;;;;;;;;;;4981730;28;20014;-58
2023/05/14 09:20:30;;;;;;;175.85;9.85;;;;;;;;;;4980098;28;20117;-59
2023/05/14 09:22:55;;;;;;;198.82;10.18;;;;;;;;;;4983906;28;20084;-56
2023/05/14 09:25:25;;;;;;;160.20;8.77;;;;;;;;;;4983078;28;20030;-58
2023/05/14 09:27:51;;;;;;;194.80;9.55;;;;;;;;;;4982652;28;20273;-60
2023/05/14 09:30:16;;;;;;;171.40;9.57;;;;;;;;;;4981388;28;20018;-60
2023/05/14 09:32:46;;;;;;;196.27;9.85;;;;;;;;;;4981168;28;20029;-60
2023/05/14 09:35:17;;;;;;;213.60;10.55;;;;;;;;;;4980752;28;20080;-59
2023/05/14 09:37:43;;;;;;;213.52;10.65;;;;;;;;;;4981998;28;20026;-58
2023/05/14 09:40:09;;;;;;;207.15;10.48;;;;;;;;;;4986043;28;20470;-56
2023/05/14 09:42:34;;;;;;;204.82;10.68;;;;;;;;;;4986272;28;20682;-57
2023/05/14 09:45:00;;;;;;;248.97;11.77;;;;;;;;;;4985290;28;20029;-57
2023/05/14 09:47:25;;;;;;;231.43;11.40;;;;;;;;;;4983216;28;20128;-55
2023/05/14 09:49:51;;;;;;;184.03;9.50;;;;;;;;;;4985816;28;20022;-55
2023/05/14 09:52:17;;;;;;;173.75;8.60;;;;;;;;;;4983065;28;20868;-57
2023/05/14 09:54:43;;;;;;;167.55;9.20;;;;;;;;;;4981347;28;20122;-56
2023/05/14 09:57:08;;;;;;;180.73;9.25;;;;;;;;;;4980862;28;20034;-57
2023/05/14 09:59:34;;;;;;;180.82;9.43;;;;;;;;;;4981630;28;20094;-58
2023/05/14 10:01:59;;;;;;;193.35;9.20;;;;;;;;;;4981291;28;20038;-58
2023/05/14 10:04:24;;;;;;;176.18;9.02;;;;;;;;;;4982433;28;20018;-55
2023/05/14 10:06:50;;;;;;;133.95;7.57;;;;;;;;;;4984265;28;21042;-56
2023/05/14 10:09:17;;;;;;;138.23;7.82;;;;;;;;;;4983866;28;20084;-56
2023/05/14 10:11:43;;;;;;;197.63;9.90;;;;;;;;;;4983931;28;20042;-59
2023/05/14 10:14:25;;;;;;;177.20;8.55;;;;;;;;;;4984304;28;20056;-56
2023/05/14 10:16:51;;;;;;;200.10;9.38;;;;;;;;;;4984689;28;20085;-58
2023/05/14 10:19:18;;;;;;;192.38;9.38;;;;;;;;;;4982964;28;20018;-57
2023/05/14 10:21:44;;;;;;;207.00;9.65;;;;;;;;;;4983361;28;20106;-59
2023/05/14 10:24:10;;;;;;;173.65;8.90;;;;;;;;;;4984362;28;20478;-56
2023/05/14 10:26:38;;;;;;;211.45;9.93;;;;;;;;;;4984132;28;20129;-56
2023/05/14 10:29:03;;;;;;;176.93;8.73;;;;;;;;;;4984515;28;20022;-55
2023/05/14 10:31:58;;;;;;;212.57;10.18;;;;;;;;;;4981819;28;20395;-55
2023/05/14 10:34:45;;;;;;;216.40;9.93;;;;;;;;;;4992468;28;20209;-57
2023/05/14 10:37:10;;;;;;;221.18;10.05;;;;;;;;;;4987400;28;20133;-55
2023/05/14 10:39:57;;;;;;;215.07;9.93;;;;;;;;;;4984844;28;20032;-53
2023/05/14 10:42:24;;;;;;;142.50;7.97;;;;;;;;;;4983955;28;20522;-54
2023/05/14 10:44:49;;;;;;;118.35;6.97;;;;;;;;;;4982817;28;20034;-56
2023/05/14 10:47:18;;;;;;;118.27;7.23;;;;;;;;;;4983030;28;20565;-56
2023/05/14 10:49:44;;;;;;;158.77;8.43;;;;;;;;;;4983060;28;20273;-56
2023/05/14 10:52:10;;;;;;;120.03;6.68;;;;;;;;;;4983702;28;20034;-57
2023/05/14 10:54:35;;;;;;;118.57;6.78;;;;;;;;;;4980345;28;20131;-56
2023/05/14 10:57:01;;;;;;;137.03;7.20;;;;;;;;;;4983000;28;20937;-57
2023/05/14 10:59:27;;;;;;;157.27;8.20;;;;;;;;;;4983018;28;20254;-55
2023/05/14 11:01:52;;;;;;;148.48;7.53;;;;;;;;;;4982851;28;20277;-57
2023/05/14 11:04:18;;;;;;;130.98;7.70;;;;;;;;;;4982773;28;20014;-55
2023/05/14 11:06:43;;;;;;;145.30;7.68;;;;;;;;;;4982753;28;20471;-58
2023/05/14 11:09:10;;;;;;;153.77;7.90;;;;;;;;;;4983772;28;20030;-54
2023/05/14 11:11:36;;;;;;;145.85;7.75;;;;;;;;;;4982239;28;20045;-56
2023/05/14 11:14:01;;;;;;;193.90;9.27;;;;;;;;;;4983029;28;20341;-56
2023/05/14 11:16:29;;;;;;;239.53;11.33;;;;;;;;;;4982151;28;20432;-54
2023/05/14 11:19:02;;;;;;;151.38;7.75;;;;;;;;;;4981682;28;20612;-55
2023/05/14 11:21:27;;;;;;;168.43;8.38;;;;;;;;;;4984669;28;20070;-55
2023/05/14 11:23:53;;;;;;;210.30;9.88;;;;;;;;;;4983874;28;20124;-55
2023/05/14 11:26:18;;;;;;;138.57;7.85;;;;;;;;;;4982435;28;20133;-53
2023/05/14 11:28:44;;;;;;;110.57;7.00;;;;;;;;;;4984406;28;20356;-52
2023/05/14 11:31:09;;;;;;;150.13;7.77;;;;;;;;;;4980313;28;20728;-56
2023/05/14 11:33:34;;;;;;;187.55;8.85;;;;;;;;;;4979850;28;20258;-54
2023/05/14 11:36:00;;;;;;;142.65;7.97;;;;;;;;;;4983273;28;20051;-55
2023/05/14 11:38:25;;;;;;;136.13;7.67;;;;;;;;;;4984161;28;20034;-57
2023/05/14 11:40:54;;;;;;;195.23;9.63;;;;;;;;;;4981234;28;20034;-55
2023/05/14 11:43:22;;;;;;;117.80;6.82;;;;;;;;;;4982916;28;20427;-56
2023/05/14 11:45:51;;;;;;;179.45;9.00;;;;;;;;;;4982262;28;20485;-57
2023/05/14 11:48:17;;;;;;;133.27;7.57;;;;;;;;;;4981913;28;20029;-56
2023/05/14 11:50:49;;;;;;;114.28;6.90;;;;;;;;;;4983408;28;20106;-56
2023/05/14 11:53:18;;;;;;;136.00;7.38;;;;;;;;;;4983742;28;20057;-54
2023/05/14 11:55:44;;;;;;;159.30;8.02;;;;;;;;;;4980829;28;20033;-56
2023/05/14 11:58:10;;;;;;;175.65;8.70;;;;;;;;;;4982946;28;20422;-54
2023/05/14 12:00:37;;;;;;;166.52;8.30;;;;;;;;;;4980674;28;20030;-54
2023/05/14 12:03:02;;;;;;;158.70;8.32;;;;;;;;;;4981180;28;20099;-53
2023/05/14 12:05:28;;;;;;;166.23;7.70;;;;;;;;;;4979606;28;20450;-54
2023/05/14 12:07:54;;;;;;;156.27;8.53;;;;;;;;;;4984520;28;20365;-54
2023/05/14 12:10:20;;;;;;;173.50;8.57;;;;;;;;;;4981631;28;20802;-57
2023/05/14 12:12:46;;;;;;;127.10;7.38;;;;;;;;;;4984790;28;20110;-52
2023/05/14 12:15:12;;;;;;;153.65;7.88;;;;;;;;;;4981877;28;20480;-55
2023/05/14 12:17:38;;;;;;;177.40;8.68;;;;;;;;;;4980608;28;20071;-55
2023/05/14 12:20:04;;;;;;;155.30;8.02;;;;;;;;;;4982673;28;20136;-56
2023/05/14 12:22:29;;;;;;;160.35;7.95;;;;;;;;;;4982830;28;20044;-53
2023/05/14 12:24:56;;;;;;;133.52;7.53;;;;;;;;;;4982955;28;20014;-54
2023/05/14 12:27:23;;;;;;;129.90;7.22;;;;;;;;;;4984061;28;20093;-55
2023/05/14 12:29:48;;;;;;;139.82;7.30;;;;;;;;;;4985191;28;20026;-54
2023/05/14 12:32:14;;;;;;;117.25;6.95;;;;;;;;;;4982828;28;20091;-54
2023/05/14 12:34:39;;;;;;;146.73;7.47;;;;;;;;;;4980226;28;20027;-56
2023/05/14 12:37:05;;;;;;;162.52;8.10;;;;;;;;;;4964036;28;20034;-55
2023/05/14 12:39:31;;;;;;;132.63;7.22;;;;;;;;;;4983638;28;20680;-55
2023/05/14 12:41:57;;;;;;;178.38;7.72;;;;;;;;;;4982264;28;20037;-53
2023/05/14 12:44:22;;;;;;;140.70;7.43;;;;;;;;;;4983792;28;20022;-55
2023/05/14 12:46:47;;;;;;;129.37;6.87;;;;;;;;;;4982035;28;20432;-55
2023/05/14 12:49:12;;;;;;;177.80;8.57;;;;;;;;;;4980825;28;20053;-55
2023/05/14 12:51:37;;;;;;;189.10;8.85;;;;;;;;;;4982766;28;20358;-52
2023/05/14 12:54:03;;;;;;;207.07;9.40;;;;;;;;;;4982222;28;20110;-56
2023/05/14 12:56:30;;;;;;;169.07;8.20;;;;;;;;;;4982278;28;20268;-52
2023/05/14 12:58:55;;;;;;;204.93;9.35;;;;;;;;;;4983946;28;20058;-54
2023/05/14 13:01:20;;;;;;;228.17;10.53;;;;;;;;;;4981062;28;20148;-53
2023/05/14 13:03:46;;;;;;;248.70;10.85;;;;;;;;;;4980232;28;20296;-55
2023/05/14 13:06:11;;;;;;;205.23;9.50;;;;;;;;;;4981914;28;20038;-54
2023/05/14 13:08:36;;;;;;;203.75;9.35;;;;;;;;;;4983156;28;20265;-56
2023/05/14 13:11:01;;;;;;;204.47;9.00;;;;;;;;;;4980651;28;20041;-53
2023/05/14 13:13:27;;;;;;;209.90;9.40;;;;;;;;;;4982282;28;20261;-55
2023/05/14 13:15:52;;;;;;;242.45;10.45;;;;;;;;;;4979031;28;20030;-54
2023/05/14 13:18:17;;;;;;;192.48;9.15;;;;;;;;;;4979188;28;20060;-53
2023/05/14 13:20:43;;;;;;;196.77;9.17;;;;;;;;;;4982574;28;20030;-56
2023/05/14 13:23:09;;;;;;;197.73;9.07;;;;;;;;;;4982342;28;20276;-54
2023/05/14 13:25:34;;;;;;;172.93;8.45;;;;;;;;;;4967000;28;20460;-53
2023/05/14 13:27:59;;;;;;;209.55;8.57;;;;;;;;;;4984048;28;20546;-55
2023/05/14 13:30:25;;;;;;;132.73;7.43;;;;;;;;;;4981265;28;20052;-53
2023/05/14 13:32:50;;;;;;;123.65;7.13;;;;;;;;;;4977801;28;20308;-52
2023/05/14 13:35:15;;;;;;;155.27;8.17;;;;;;;;;;4980792;28;20038;-54
2023/05/14 13:37:44;;;;;;;138.10;7.60;;;;;;;;;;4980656;28;21171;-53
2023/05/14 13:40:09;;;;;;;160.85;8.45;;;;;;;;;;4979494;28;20273;-54
2023/05/14 13:42:35;;;;;;;131.05;7.40;;;;;;;;;;4980697;28;20022;-56
2023/05/14 13:45:01;;;;;;;128.60;7.00;;;;;;;;;;4981969;28;20038;-54
2023/05/14 13:47:26;;;;;;;205.88;9.63;;;;;;;;;;4981952;28;20106;-55
2023/05/14 13:49:51;;;;;;;117.53;6.97;;;;;;;;;;4981263;28;20612;-54
2023/05/14 13:52:17;;;;;;;110.68;6.63;;;;;;;;;;4980827;28;20262;-54
2023/05/14 13:54:42;;;;;;;144.50;7.50;;;;;;;;;;4980480;28;20912;-56
2023/05/14 13:57:07;;;;;;;138.83;7.80;;;;;;;;;;4978207;28;20311;-55
2023/05/14 13:59:32;;;;;;;134.57;7.43;;;;;;;;;;4979732;28;20262;-53
2023/05/14 14:01:58;;;;;;;196.90;9.33;;;;;;;;;;4980205;28;20029;-55
2023/05/14 14:04:27;;;;;;;160.27;8.10;;;;;;;;;;4970355;28;20426;-54
2023/05/14 14:06:53;;;;;;;147.32;8.30;;;;;;;;;;4982339;28;20495;-55